sensor_id;sensor_type;location;lat;lon;timestamp;P1;durP1;ratioP1;P2;durP2;ratioP2
20095;SDS011;10207;50.942;6.900;2022-10-16T00:01:34;4.63;;;1.60;;
20095;SDS011;10207;50.942;6.900;2022-10-16T00:04:00;2.25;;;1.50;;
20095;SDS011;10207;50.942;6.900;2022-10-16T00:06:27;5.00;;;1.77;;
20095;SDS011;10207;50.942;6.900;2022-10-16T00:08:53;3.60;;;1.90;;
20095;SDS011;10207;50.942;6.900;2022-10-16T00:11:20;2.65;;;1.35;;
20095;SDS011;10207;50.942;6.900;2022-10-16T00:13:47;2.83;;;1.92;;
20095;SDS011;10207;50.942;6.900;2022-10-16T00:16:14;3.50;;;1.70;;
20095;SDS011;10207;50.942;6.900;2022-10-16T00:18:40;3.65;;;1.52;;
20095;SDS011;10207;50.942;6.900;2022-10-16T00:21:10;2.25;;;1.50;;
20095;SDS011;10207;50.942;6.900;2022-10-16T00:23:36;3.40;;;1.67;;
20095;SDS011;10207;50.942;6.900;2022-10-16T00:26:03;3.50;;;1.80;;
20095;SDS011;10207;50.942;6.900;2022-10-16T00:28:30;4.07;;;1.70;;
20095;SDS011;10207;50.942;6.900;2022-10-16T00:30:56;5.10;;;2.13;;
20095;SDS011;10207;50.942;6.900;2022-10-16T00:33:22;2.80;;;1.50;;
20095;SDS011;10207;50.942;6.900;2022-10-16T00:35:48;3.58;;;2.05;;
20095;SDS011;10207;50.942;6.900;2022-10-16T00:38:13;4.03;;;1.50;;
20095;SDS011;10207;50.942;6.900;2022-10-16T00:40:39;5.90;;;1.55;;
20095;SDS011;10207;50.942;6.900;2022-10-16T00:43:12;2.05;;;1.40;;
20095;SDS011;10207;50.942;6.900;2022-10-16T00:45:38;2.05;;;1.42;;
20095;SDS011;10207;50.942;6.900;2022-10-16T00:48:06;3.05;;;1.35;;
20095;SDS011;10207;50.942;6.900;2022-10-16T00:50:36;2.28;;;1.30;;
20095;SDS011;10207;50.942;6.900;2022-10-16T00:53:02;3.85;;;1.67;;
20095;SDS011;10207;50.942;6.900;2022-10-16T00:55:28;1.67;;;1.13;;
20095;SDS011;10207;50.942;6.900;2022-10-16T00:57:55;4.07;;;1.58;;
20095;SDS011;10207;50.942;6.900;2022-10-16T01:00:22;2.53;;;1.40;;
20095;SDS011;10207;50.942;6.900;2022-10-16T01:02:58;2.80;;;1.30;;
20095;SDS011;10207;50.942;6.900;2022-10-16T01:05:30;7.43;;;1.63;;
20095;SDS011;10207;50.942;6.900;2022-10-16T01:08:13;2.40;;;1.40;;
20095;SDS011;10207;50.942;6.900;2022-10-16T01:10:48;5.13;;;1.13;;
20095;SDS011;10207;50.942;6.900;2022-10-16T01:13:24;5.35;;;1.55;;
20095;SDS011;10207;50.942;6.900;2022-10-16T01:16:13;1.88;;;1.17;;
20095;SDS011;10207;50.942;6.900;2022-10-16T01:21:38;4.40;;;1.20;;
20095;SDS011;10207;50.942;6.900;2022-10-16T01:24:17;1.65;;;1.08;;
20095;SDS011;10207;50.942;6.900;2022-10-16T01:31:59;4.57;;;0.90;;
20095;SDS011;10207;50.942;6.900;2022-10-16T01:34:28;3.35;;;1.10;;
20095;SDS011;10207;50.942;6.900;2022-10-16T01:37:00;2.80;;;1.02;;
20095;SDS011;10207;50.942;6.900;2022-10-16T01:39:29;1.25;;;0.93;;
20095;SDS011;10207;50.942;6.900;2022-10-16T01:41:58;3.28;;;1.10;;
20095;SDS011;10207;50.942;6.900;2022-10-16T01:44:26;2.10;;;0.88;;
20095;SDS011;10207;50.942;6.900;2022-10-16T01:46:53;2.50;;;0.95;;
20095;SDS011;10207;50.942;6.900;2022-10-16T01:49:20;1.83;;;1.10;;
20095;SDS011;10207;50.942;6.900;2022-10-16T01:51:47;3.15;;;1.02;;
20095;SDS011;10207;50.942;6.900;2022-10-16T01:54:14;2.95;;;1.05;;
20095;SDS011;10207;50.942;6.900;2022-10-16T01:56:41;1.80;;;1.00;;
20095;SDS011;10207;50.942;6.900;2022-10-16T01:59:11;3.00;;;1.33;;
20095;SDS011;10207;50.942;6.900;2022-10-16T02:01:38;2.47;;;1.00;;
20095;SDS011;10207;50.942;6.900;2022-10-16T02:04:08;2.05;;;1.00;;
20095;SDS011;10207;50.942;6.900;2022-10-16T02:06:35;1.63;;;0.90;;
20095;SDS011;10207;50.942;6.900;2022-10-16T02:09:01;1.50;;;0.80;;
20095;SDS011;10207;50.942;6.900;2022-10-16T02:11:27;3.63;;;0.95;;
20095;SDS011;10207;50.942;6.900;2022-10-16T02:13:58;4.75;;;0.93;;
20095;SDS011;10207;50.942;6.900;2022-10-16T02:16:32;3.38;;;1.20;;
20095;SDS011;10207;50.942;6.900;2022-10-16T02:18:58;1.05;;;0.73;;
20095;SDS011;10207;50.942;6.900;2022-10-16T02:21:25;2.10;;;1.17;;
20095;SDS011;10207;50.942;6.900;2022-10-16T02:26:29;3.78;;;1.27;;
20095;SDS011;10207;50.942;6.900;2022-10-16T02:28:59;2.20;;;1.17;;
20095;SDS011;10207;50.942;6.900;2022-10-16T02:31:27;1.75;;;1.10;;
20095;SDS011;10207;50.942;6.900;2022-10-16T02:33:54;3.15;;;1.38;;
20095;SDS011;10207;50.942;6.900;2022-10-16T02:36:21;4.03;;;1.50;;
20095;SDS011;10207;50.942;6.900;2022-10-16T02:38:47;1.98;;;1.02;;
20095;SDS011;10207;50.942;6.900;2022-10-16T02:41:14;1.83;;;1.20;;
20095;SDS011;10207;50.942;6.900;2022-10-16T02:43:40;2.85;;;1.27;;
20095;SDS011;10207;50.942;6.900;2022-10-16T02:46:06;2.38;;;1.17;;
20095;SDS011;10207;50.942;6.900;2022-10-16T02:48:31;1.88;;;0.90;;
20095;SDS011;10207;50.942;6.900;2022-10-16T02:50:57;1.63;;;1.02;;
20095;SDS011;10207;50.942;6.900;2022-10-16T02:53:23;1.40;;;1.00;;
20095;SDS011;10207;50.942;6.900;2022-10-16T02:55:49;1.42;;;0.80;;
20095;SDS011;10207;50.942;6.900;2022-10-16T02:58:14;4.10;;;0.93;;
20095;SDS011;10207;50.942;6.900;2022-10-16T03:00:41;2.72;;;0.80;;
20095;SDS011;10207;50.942;6.900;2022-10-16T03:03:07;4.40;;;1.00;;
20095;SDS011;10207;50.942;6.900;2022-10-16T03:05:33;1.42;;;0.55;;
20095;SDS011;10207;50.942;6.900;2022-10-16T03:07:59;3.13;;;0.73;;
20095;SDS011;10207;50.942;6.900;2022-10-16T03:10:26;1.00;;;0.75;;
20095;SDS011;10207;50.942;6.900;2022-10-16T03:12:52;2.35;;;0.80;;
20095;SDS011;10207;50.942;6.900;2022-10-16T03:15:17;2.53;;;1.20;;
20095;SDS011;10207;50.942;6.900;2022-10-16T03:17:43;2.97;;;0.90;;
20095;SDS011;10207;50.942;6.900;2022-10-16T03:20:09;1.42;;;0.98;;
20095;SDS011;10207;50.942;6.900;2022-10-16T03:22:35;2.65;;;1.05;;
20095;SDS011;10207;50.942;6.900;2022-10-16T03:25:01;1.70;;;0.90;;
20095;SDS011;10207;50.942;6.900;2022-10-16T03:27:26;2.10;;;1.05;;
20095;SDS011;10207;50.942;6.900;2022-10-16T03:29:52;2.35;;;0.75;;
20095;SDS011;10207;50.942;6.900;2022-10-16T03:32:18;1.15;;;0.80;;
20095;SDS011;10207;50.942;6.900;2022-10-16T03:34:45;3.80;;;1.10;;
20095;SDS011;10207;50.942;6.900;2022-10-16T03:37:11;1.23;;;0.93;;
20095;SDS011;10207;50.942;6.900;2022-10-16T03:39:37;2.75;;;1.00;;
20095;SDS011;10207;50.942;6.900;2022-10-16T03:42:03;4.07;;;1.02;;
20095;SDS011;10207;50.942;6.900;2022-10-16T03:44:28;4.20;;;1.30;;
20095;SDS011;10207;50.942;6.900;2022-10-16T03:46:54;2.65;;;1.02;;
20095;SDS011;10207;50.942;6.900;2022-10-16T03:49:20;1.20;;;0.80;;
20095;SDS011;10207;50.942;6.900;2022-10-16T03:51:45;1.83;;;0.98;;
20095;SDS011;10207;50.942;6.900;2022-10-16T03:54:11;2.58;;;1.05;;
20095;SDS011;10207;50.942;6.900;2022-10-16T03:56:37;1.52;;;0.57;;
20095;SDS011;10207;50.942;6.900;2022-10-16T03:59:03;2.20;;;0.80;;
20095;SDS011;10207;50.942;6.900;2022-10-16T04:01:29;4.00;;;0.60;;
20095;SDS011;10207;50.942;6.900;2022-10-16T04:03:55;3.20;;;0.80;;
20095;SDS011;10207;50.942;6.900;2022-10-16T04:06:21;1.52;;;1.00;;
20095;SDS011;10207;50.942;6.900;2022-10-16T04:08:47;3.38;;;0.70;;
20095;SDS011;10207;50.942;6.900;2022-10-16T04:11:12;1.73;;;0.88;;
20095;SDS011;10207;50.942;6.900;2022-10-16T04:13:38;1.60;;;0.60;;
20095;SDS011;10207;50.942;6.900;2022-10-16T04:16:04;0.70;;;0.50;;
20095;SDS011;10207;50.942;6.900;2022-10-16T04:18:30;3.33;;;0.70;;
20095;SDS011;10207;50.942;6.900;2022-10-16T04:20:55;1.33;;;0.60;;
20095;SDS011;10207;50.942;6.900;2022-10-16T04:23:21;0.68;;;0.57;;
20095;SDS011;10207;50.942;6.900;2022-10-16T04:25:48;0.88;;;0.73;;
20095;SDS011;10207;50.942;6.900;2022-10-16T04:28:14;4.13;;;0.50;;
20095;SDS011;10207;50.942;6.900;2022-10-16T04:30:40;1.27;;;0.70;;
20095;SDS011;10207;50.942;6.900;2022-10-16T04:33:05;2.35;;;1.15;;
20095;SDS011;10207;50.942;6.900;2022-10-16T04:35:31;1.23;;;0.70;;
20095;SDS011;10207;50.942;6.900;2022-10-16T04:37:57;2.83;;;0.50;;
20095;SDS011;10207;50.942;6.900;2022-10-16T04:40:23;3.08;;;0.70;;
20095;SDS011;10207;50.942;6.900;2022-10-16T04:42:49;2.50;;;0.50;;
20095;SDS011;10207;50.942;6.900;2022-10-16T04:45:15;1.80;;;0.70;;
20095;SDS011;10207;50.942;6.900;2022-10-16T04:47:40;2.20;;;0.70;;
20095;SDS011;10207;50.942;6.900;2022-10-16T04:50:06;1.05;;;0.65;;
20095;SDS011;10207;50.942;6.900;2022-10-16T04:52:32;0.70;;;0.60;;
20095;SDS011;10207;50.942;6.900;2022-10-16T04:54:58;2.28;;;0.60;;
20095;SDS011;10207;50.942;6.900;2022-10-16T04:57:27;3.78;;;0.70;;
20095;SDS011;10207;50.942;6.900;2022-10-16T04:59:53;1.42;;;0.70;;
20095;SDS011;10207;50.942;6.900;2022-10-16T05:02:19;1.92;;;0.80;;
20095;SDS011;10207;50.942;6.900;2022-10-16T05:04:44;1.10;;;0.73;;
20095;SDS011;10207;50.942;6.900;2022-10-16T05:07:10;3.42;;;0.60;;
20095;SDS011;10207;50.942;6.900;2022-10-16T05:09:36;3.08;;;0.80;;
20095;SDS011;10207;50.942;6.900;2022-10-16T05:12:01;2.03;;;0.60;;
20095;SDS011;10207;50.942;6.900;2022-10-16T05:14:29;2.28;;;0.60;;
20095;SDS011;10207;50.942;6.900;2022-10-16T05:16:54;1.23;;;0.60;;
20095;SDS011;10207;50.942;6.900;2022-10-16T05:19:20;2.83;;;0.95;;
20095;SDS011;10207;50.942;6.900;2022-10-16T05:21:46;0.98;;;0.65;;
20095;SDS011;10207;50.942;6.900;2022-10-16T05:24:11;2.47;;;0.68;;
20095;SDS011;10207;50.942;6.900;2022-10-16T05:26:37;2.00;;;0.80;;
20095;SDS011;10207;50.942;6.900;2022-10-16T05:29:03;1.63;;;0.70;;
20095;SDS011;10207;50.942;6.900;2022-10-16T05:31:29;5.85;;;0.80;;
20095;SDS011;10207;50.942;6.900;2022-10-16T05:34:01;0.98;;;0.70;;
20095;SDS011;10207;50.942;6.900;2022-10-16T05:36:27;3.22;;;0.73;;
20095;SDS011;10207;50.942;6.900;2022-10-16T05:38:53;1.00;;;0.65;;
20095;SDS011;10207;50.942;6.900;2022-10-16T05:41:19;0.80;;;0.70;;
20095;SDS011;10207;50.942;6.900;2022-10-16T05:43:47;1.50;;;0.55;;
20095;SDS011;10207;50.942;6.900;2022-10-16T05:46:13;3.45;;;0.73;;
20095;SDS011;10207;50.942;6.900;2022-10-16T05:48:38;0.63;;;0.60;;
20095;SDS011;10207;50.942;6.900;2022-10-16T05:51:05;3.60;;;0.90;;
20095;SDS011;10207;50.942;6.900;2022-10-16T05:53:34;2.83;;;0.85;;
20095;SDS011;10207;50.942;6.900;2022-10-16T05:56:01;1.67;;;0.80;;
20095;SDS011;10207;50.942;6.900;2022-10-16T05:58:30;3.00;;;0.77;;
20095;SDS011;10207;50.942;6.900;2022-10-16T06:00:57;1.38;;;0.77;;
20095;SDS011;10207;50.942;6.900;2022-10-16T06:03:23;1.15;;;0.70;;
20095;SDS011;10207;50.942;6.900;2022-10-16T06:05:49;2.58;;;0.73;;
20095;SDS011;10207;50.942;6.900;2022-10-16T06:08:15;4.22;;;1.10;;
20095;SDS011;10207;50.942;6.900;2022-10-16T06:10:41;1.88;;;0.80;;
20095;SDS011;10207;50.942;6.900;2022-10-16T06:13:07;1.75;;;0.82;;
20095;SDS011;10207;50.942;6.900;2022-10-16T06:15:33;3.28;;;1.05;;
20095;SDS011;10207;50.942;6.900;2022-10-16T06:17:58;1.65;;;1.00;;
20095;SDS011;10207;50.942;6.900;2022-10-16T06:20:24;1.75;;;1.00;;
20095;SDS011;10207;50.942;6.900;2022-10-16T06:22:50;1.77;;;1.10;;
20095;SDS011;10207;50.942;6.900;2022-10-16T06:25:15;2.22;;;1.00;;
20095;SDS011;10207;50.942;6.900;2022-10-16T06:27:41;3.20;;;0.82;;
20095;SDS011;10207;50.942;6.900;2022-10-16T06:30:07;3.00;;;1.10;;
20095;SDS011;10207;50.942;6.900;2022-10-16T06:32:33;3.03;;;1.00;;
20095;SDS011;10207;50.942;6.900;2022-10-16T06:34:59;2.88;;;1.10;;
20095;SDS011;10207;50.942;6.900;2022-10-16T06:37:24;1.83;;;0.80;;
20095;SDS011;10207;50.942;6.900;2022-10-16T06:39:50;2.17;;;1.10;;
20095;SDS011;10207;50.942;6.900;2022-10-16T06:42:18;2.97;;;0.93;;
20095;SDS011;10207;50.942;6.900;2022-10-16T06:44:44;1.77;;;1.10;;
20095;SDS011;10207;50.942;6.900;2022-10-16T06:47:10;4.38;;;0.93;;
20095;SDS011;10207;50.942;6.900;2022-10-16T06:49:36;3.67;;;0.98;;
20095;SDS011;10207;50.942;6.900;2022-10-16T06:52:02;1.35;;;0.85;;
20095;SDS011;10207;50.942;6.900;2022-10-16T06:54:28;1.35;;;0.85;;
20095;SDS011;10207;50.942;6.900;2022-10-16T06:56:54;1.40;;;0.55;;
20095;SDS011;10207;50.942;6.900;2022-10-16T06:59:20;2.78;;;1.05;;
20095;SDS011;10207;50.942;6.900;2022-10-16T07:01:46;1.40;;;0.90;;
20095;SDS011;10207;50.942;6.900;2022-10-16T07:04:12;4.18;;;1.17;;
20095;SDS011;10207;50.942;6.900;2022-10-16T07:06:37;2.40;;;0.73;;
20095;SDS011;10207;50.942;6.900;2022-10-16T07:09:04;3.15;;;0.70;;
20095;SDS011;10207;50.942;6.900;2022-10-16T07:11:30;2.35;;;0.80;;
20095;SDS011;10207;50.942;6.900;2022-10-16T07:13:56;1.45;;;0.90;;
20095;SDS011;10207;50.942;6.900;2022-10-16T07:16:23;4.07;;;1.33;;
20095;SDS011;10207;50.942;6.900;2022-10-16T07:18:49;1.38;;;0.95;;
20095;SDS011;10207;50.942;6.900;2022-10-16T07:21:19;1.05;;;0.70;;
20095;SDS011;10207;50.942;6.900;2022-10-16T07:23:50;1.85;;;0.80;;
20095;SDS011;10207;50.942;6.900;2022-10-16T07:26:15;1.60;;;0.75;;
20095;SDS011;10207;50.942;6.900;2022-10-16T07:28:42;2.83;;;0.85;;
20095;SDS011;10207;50.942;6.900;2022-10-16T07:31:09;0.70;;;0.60;;
20095;SDS011;10207;50.942;6.900;2022-10-16T07:33:36;6.00;;;0.80;;
20095;SDS011;10207;50.942;6.900;2022-10-16T07:36:03;5.32;;;0.93;;
20095;SDS011;10207;50.942;6.900;2022-10-16T07:38:29;4.90;;;0.73;;
20095;SDS011;10207;50.942;6.900;2022-10-16T07:40:58;1.40;;;0.80;;
20095;SDS011;10207;50.942;6.900;2022-10-16T07:43:25;2.22;;;0.65;;
20095;SDS011;10207;50.942;6.900;2022-10-16T07:45:51;1.38;;;0.60;;
20095;SDS011;10207;50.942;6.900;2022-10-16T07:48:17;0.88;;;0.80;;
20095;SDS011;10207;50.942;6.900;2022-10-16T07:50:43;1.25;;;0.55;;
20095;SDS011;10207;50.942;6.900;2022-10-16T07:53:09;1.08;;;0.65;;
20095;SDS011;10207;50.942;6.900;2022-10-16T07:55:35;2.28;;;0.70;;
20095;SDS011;10207;50.942;6.900;2022-10-16T07:58:01;2.30;;;0.70;;
20095;SDS011;10207;50.942;6.900;2022-10-16T08:00:26;1.80;;;0.80;;
20095;SDS011;10207;50.942;6.900;2022-10-16T08:02:52;1.73;;;0.75;;
20095;SDS011;10207;50.942;6.900;2022-10-16T08:05:18;1.67;;;0.70;;
20095;SDS011;10207;50.942;6.900;2022-10-16T08:07:48;3.13;;;0.88;;
20095;SDS011;10207;50.942;6.900;2022-10-16T08:10:17;3.65;;;0.75;;
20095;SDS011;10207;50.942;6.900;2022-10-16T08:12:43;1.40;;;0.60;;
20095;SDS011;10207;50.942;6.900;2022-10-16T08:15:09;1.15;;;0.60;;
20095;SDS011;10207;50.942;6.900;2022-10-16T08:17:35;2.05;;;0.60;;
20095;SDS011;10207;50.942;6.900;2022-10-16T08:20:01;1.85;;;0.65;;
20095;SDS011;10207;50.942;6.900;2022-10-16T08:22:27;3.40;;;0.70;;
20095;SDS011;10207;50.942;6.900;2022-10-16T08:24:52;1.92;;;0.65;;
20095;SDS011;10207;50.942;6.900;2022-10-16T08:27:18;2.78;;;0.60;;
20095;SDS011;10207;50.942;6.900;2022-10-16T08:29:44;1.10;;;0.30;;
20095;SDS011;10207;50.942;6.900;2022-10-16T08:32:10;3.88;;;0.57;;
20095;SDS011;10207;50.942;6.900;2022-10-16T08:34:35;0.82;;;0.38;;
20095;SDS011;10207;50.942;6.900;2022-10-16T08:37:01;3.00;;;0.60;;
20095;SDS011;10207;50.942;6.900;2022-10-16T08:39:27;2.83;;;0.55;;
20095;SDS011;10207;50.942;6.900;2022-10-16T08:42:02;1.48;;;0.65;;
20095;SDS011;10207;50.942;6.900;2022-10-16T08:49:33;0.75;;;0.47;;
20095;SDS011;10207;50.942;6.900;2022-10-16T08:51:59;1.00;;;0.40;;
20095;SDS011;10207;50.942;6.900;2022-10-16T08:54:29;2.20;;;0.47;;
20095;SDS011;10207;50.942;6.900;2022-10-16T08:56:57;1.83;;;0.30;;
20095;SDS011;10207;50.942;6.900;2022-10-16T08:59:26;1.85;;;0.40;;
20095;SDS011;10207;50.942;6.900;2022-10-16T09:01:52;1.70;;;0.70;;
20095;SDS011;10207;50.942;6.900;2022-10-16T09:06:56;1.40;;;0.40;;
20095;SDS011;10207;50.942;6.900;2022-10-16T09:12:11;2.22;;;0.60;;
20095;SDS011;10207;50.942;6.900;2022-10-16T09:14:51;1.40;;;0.32;;
20095;SDS011;10207;50.942;6.900;2022-10-16T09:20:19;3.40;;;0.35;;
20095;SDS011;10207;50.942;6.900;2022-10-16T09:22:48;1.50;;;0.32;;
20095;SDS011;10207;50.942;6.900;2022-10-16T09:25:15;0.55;;;0.17;;
20095;SDS011;10207;50.942;6.900;2022-10-16T09:27:42;0.60;;;0.20;;
20095;SDS011;10207;50.942;6.900;2022-10-16T09:30:10;0.52;;;0.20;;
20095;SDS011;10207;50.942;6.900;2022-10-16T09:32:37;3.72;;;0.45;;
20095;SDS011;10207;50.942;6.900;2022-10-16T09:35:03;0.55;;;0.20;;
20095;SDS011;10207;50.942;6.900;2022-10-16T09:37:29;15.68;;;1.00;;
20095;SDS011;10207;50.942;6.900;2022-10-16T09:39:56;1.42;;;0.20;;
20095;SDS011;10207;50.942;6.900;2022-10-16T09:42:31;3.13;;;1.17;;
20095;SDS011;10207;50.942;6.900;2022-10-16T09:44:58;0.93;;;0.30;;
20095;SDS011;10207;50.942;6.900;2022-10-16T09:47:25;2.47;;;0.40;;
20095;SDS011;10207;50.942;6.900;2022-10-16T09:49:52;2.35;;;0.57;;
20095;SDS011;10207;50.942;6.900;2022-10-16T09:52:18;3.20;;;0.35;;
20095;SDS011;10207;50.942;6.900;2022-10-16T09:55:30;1.00;;;0.20;;
20095;SDS011;10207;50.942;6.900;2022-10-16T09:57:30;1.27;;;0.20;;
20095;SDS011;10207;50.942;6.900;2022-10-16T09:59:57;0.80;;;0.30;;
20095;SDS011;10207;50.942;6.900;2022-10-16T10:02:28;0.80;;;0.20;;
20095;SDS011;10207;50.942;6.900;2022-10-16T10:04:54;1.52;;;0.57;;
20095;SDS011;10207;50.942;6.900;2022-10-16T10:07:28;1.23;;;0.40;;
20095;SDS011;10207;50.942;6.900;2022-10-16T10:09:58;1.02;;;0.30;;
20095;SDS011;10207;50.942;6.900;2022-10-16T10:12:28;1.13;;;0.10;;
20095;SDS011;10207;50.942;6.900;2022-10-16T10:14:55;1.25;;;0.30;;
20095;SDS011;10207;50.942;6.900;2022-10-16T10:17:25;1.13;;;0.30;;
20095;SDS011;10207;50.942;6.900;2022-10-16T10:19:55;0.32;;;0.17;;
20095;SDS011;10207;50.942;6.900;2022-10-16T10:27:27;1.35;;;0.20;;
20095;SDS011;10207;50.942;6.900;2022-10-16T10:35:30;1.40;;;0.20;;
20095;SDS011;10207;50.942;6.900;2022-10-16T10:46:00;1.65;;;0.52;;
20095;SDS011;10207;50.942;6.900;2022-10-16T10:51:30;1.80;;;0.47;;
20095;SDS011;10207;50.942;6.900;2022-10-16T11:01:16;1.50;;;0.22;;
20095;SDS011;10207;50.942;6.900;2022-10-16T11:03:52;0.55;;;0.20;;
20095;SDS011;10207;50.942;6.900;2022-10-16T11:06:28;1.75;;;0.30;;
20095;SDS011;10207;50.942;6.900;2022-10-16T11:09:18;0.65;;;0.25;;
20095;SDS011;10207;50.942;6.900;2022-10-16T11:12:25;1.95;;;0.50;;
20095;SDS011;10207;50.942;6.900;2022-10-16T11:14:34;1.17;;;0.20;;
20095;SDS011;10207;50.942;6.900;2022-10-16T11:22:22;1.35;;;0.30;;
20095;SDS011;10207;50.942;6.900;2022-10-16T11:27:37;0.98;;;0.20;;
20095;SDS011;10207;50.942;6.900;2022-10-16T11:30:24;0.63;;;0.20;;
20095;SDS011;10207;50.942;6.900;2022-10-16T11:32:53;1.45;;;0.20;;
20095;SDS011;10207;50.942;6.900;2022-10-16T11:35:21;2.10;;;0.30;;
20095;SDS011;10207;50.942;6.900;2022-10-16T11:37:48;0.50;;;0.10;;
20095;SDS011;10207;50.942;6.900;2022-10-16T11:40:19;0.75;;;0.20;;
20095;SDS011;10207;50.942;6.900;2022-10-16T11:42:51;0.95;;;0.22;;
20095;SDS011;10207;50.942;6.900;2022-10-16T11:45:24;0.25;;;0.10;;
20095;SDS011;10207;50.942;6.900;2022-10-16T11:47:58;1.90;;;0.40;;
20095;SDS011;10207;50.942;6.900;2022-10-16T11:50:31;2.13;;;0.25;;
20095;SDS011;10207;50.942;6.900;2022-10-16T11:53:12;2.08;;;0.50;;
20095;SDS011;10207;50.942;6.900;2022-10-16T11:55:40;0.80;;;0.30;;
20095;SDS011;10207;50.942;6.900;2022-10-16T11:58:08;1.08;;;0.10;;
20095;SDS011;10207;50.942;6.900;2022-10-16T12:00:40;1.08;;;0.20;;
20095;SDS011;10207;50.942;6.900;2022-10-16T12:08:08;1.45;;;0.30;;
20095;SDS011;10207;50.942;6.900;2022-10-16T12:10:34;1.85;;;0.30;;
20095;SDS011;10207;50.942;6.900;2022-10-16T12:13:04;1.35;;;0.20;;
20095;SDS011;10207;50.942;6.900;2022-10-16T12:15:32;1.15;;;0.30;;
20095;SDS011;10207;50.942;6.900;2022-10-16T12:17:58;1.10;;;0.45;;
20095;SDS011;10207;50.942;6.900;2022-10-16T12:22:54;2.28;;;0.85;;
20095;SDS011;10207;50.942;6.900;2022-10-16T12:25:25;0.77;;;0.15;;
20095;SDS011;10207;50.942;6.900;2022-10-16T12:28:34;0.30;;;0.20;;
20095;SDS011;10207;50.942;6.900;2022-10-16T12:30:41;1.38;;;0.22;;
20095;SDS011;10207;50.942;6.900;2022-10-16T12:33:16;0.90;;;0.10;;
20095;SDS011;10207;50.942;6.900;2022-10-16T12:35:45;1.23;;;0.17;;
20095;SDS011;10207;50.942;6.900;2022-10-16T12:38:15;2.50;;;0.20;;
20095;SDS011;10207;50.942;6.900;2022-10-16T12:40:42;2.67;;;0.20;;
20095;SDS011;10207;50.942;6.900;2022-10-16T12:43:12;1.02;;;0.20;;
20095;SDS011;10207;50.942;6.900;2022-10-16T12:45:48;3.40;;;0.50;;
20095;SDS011;10207;50.942;6.900;2022-10-16T12:48:23;0.55;;;0.10;;
20095;SDS011;10207;50.942;6.900;2022-10-16T12:50:49;0.60;;;0.17;;
20095;SDS011;10207;50.942;6.900;2022-10-16T12:53:19;2.15;;;0.52;;
20095;SDS011;10207;50.942;6.900;2022-10-16T12:55:49;0.90;;;0.20;;
20095;SDS011;10207;50.942;6.900;2022-10-16T13:01:24;5.90;;;0.50;;
20095;SDS011;10207;50.942;6.900;2022-10-16T13:04:05;3.00;;;0.22;;
20095;SDS011;10207;50.942;6.900;2022-10-16T13:06:40;2.00;;;0.30;;
20095;SDS011;10207;50.942;6.900;2022-10-16T13:15:41;1.92;;;0.22;;
20095;SDS011;10207;50.942;6.900;2022-10-16T13:17:45;2.35;;;0.22;;
20095;SDS011;10207;50.942;6.900;2022-10-16T13:20:18;0.52;;;0.20;;
20095;SDS011;10207;50.942;6.900;2022-10-16T13:22:50;1.45;;;0.20;;
20095;SDS011;10207;50.942;6.900;2022-10-16T13:28:02;3.13;;;0.50;;
20095;SDS011;10207;50.942;6.900;2022-10-16T13:30:29;3.63;;;0.30;;
20095;SDS011;10207;50.942;6.900;2022-10-16T13:33:00;0.68;;;0.20;;
20095;SDS011;10207;50.942;6.900;2022-10-16T13:35:27;1.00;;;0.20;;
20095;SDS011;10207;50.942;6.900;2022-10-16T13:38:54;3.13;;;0.35;;
20095;SDS011;10207;50.942;6.900;2022-10-16T13:43:14;1.95;;;0.20;;
20095;SDS011;10207;50.942;6.900;2022-10-16T13:45:41;1.65;;;0.40;;
20095;SDS011;10207;50.942;6.900;2022-10-16T13:48:17;0.50;;;0.20;;
20095;SDS011;10207;50.942;6.900;2022-10-16T13:50:43;2.83;;;0.35;;
20095;SDS011;10207;50.942;6.900;2022-10-16T13:53:13;0.45;;;0.20;;
20095;SDS011;10207;50.942;6.900;2022-10-16T13:55:38;1.73;;;0.40;;
20095;SDS011;10207;50.942;6.900;2022-10-16T13:58:08;0.85;;;0.30;;
20095;SDS011;10207;50.942;6.900;2022-10-16T14:00:33;0.93;;;0.40;;
20095;SDS011;10207;50.942;6.900;2022-10-16T14:03:02;1.85;;;0.10;;
20095;SDS011;10207;50.942;6.900;2022-10-16T14:05:29;2.35;;;0.30;;
20095;SDS011;10207;50.942;6.900;2022-10-16T14:07:55;2.03;;;0.40;;
20095;SDS011;10207;50.942;6.900;2022-10-16T14:10:23;0.82;;;0.20;;
20095;SDS011;10207;50.942;6.900;2022-10-16T14:13:03;1.95;;;0.20;;
20095;SDS011;10207;50.942;6.900;2022-10-16T14:15:35;2.78;;;0.40;;
20095;SDS011;10207;50.942;6.900;2022-10-16T14:18:02;0.82;;;0.30;;
20095;SDS011;10207;50.942;6.900;2022-10-16T14:20:28;1.20;;;0.30;;
20095;SDS011;10207;50.942;6.900;2022-10-16T14:23:18;3.13;;;0.25;;
20095;SDS011;10207;50.942;6.900;2022-10-16T14:25:45;1.27;;;0.35;;
20095;SDS011;10207;50.942;6.900;2022-10-16T14:28:21;1.80;;;0.30;;
20095;SDS011;10207;50.942;6.900;2022-10-16T14:33:36;2.15;;;0.35;;
20095;SDS011;10207;50.942;6.900;2022-10-16T14:36:04;1.83;;;0.28;;
20095;SDS011;10207;50.942;6.900;2022-10-16T14:38:30;3.47;;;0.47;;
20095;SDS011;10207;50.942;6.900;2022-10-16T14:40:56;0.63;;;0.20;;
20095;SDS011;10207;50.942;6.900;2022-10-16T14:43:29;2.15;;;0.32;;
20095;SDS011;10207;50.942;6.900;2022-10-16T14:45:56;1.60;;;0.40;;
20095;SDS011;10207;50.942;6.900;2022-10-16T14:48:22;2.97;;;0.50;;
20095;SDS011;10207;50.942;6.900;2022-10-16T14:50:48;0.80;;;0.20;;
20095;SDS011;10207;50.942;6.900;2022-10-16T14:53:14;1.55;;;0.40;;
20095;SDS011;10207;50.942;6.900;2022-10-16T14:55:40;1.58;;;0.57;;
20095;SDS011;10207;50.942;6.900;2022-10-16T15:00:41;1.30;;;0.30;;
20095;SDS011;10207;50.942;6.900;2022-10-16T15:03:07;2.78;;;0.30;;
20095;SDS011;10207;50.942;6.900;2022-10-16T15:05:33;1.52;;;0.30;;
20095;SDS011;10207;50.942;6.900;2022-10-16T15:07:58;2.22;;;0.60;;
20095;SDS011;10207;50.942;6.900;2022-10-16T15:10:25;1.13;;;0.28;;
20095;SDS011;10207;50.942;6.900;2022-10-16T15:12:53;0.73;;;0.40;;
20095;SDS011;10207;50.942;6.900;2022-10-16T15:17:48;2.97;;;0.30;;
20095;SDS011;10207;50.942;6.900;2022-10-16T15:20:14;1.63;;;0.32;;
20095;SDS011;10207;50.942;6.900;2022-10-16T15:22:40;2.20;;;0.40;;
20095;SDS011;10207;50.942;6.900;2022-10-16T15:25:25;1.13;;;0.20;;
20095;SDS011;10207;50.942;6.900;2022-10-16T15:27:52;0.70;;;0.30;;
20095;SDS011;10207;50.942;6.900;2022-10-16T15:30:18;0.30;;;0.20;;
20095;SDS011;10207;50.942;6.900;2022-10-16T15:32:44;0.28;;;0.20;;
20095;SDS011;10207;50.942;6.900;2022-10-16T15:35:10;5.72;;;0.40;;
20095;SDS011;10207;50.942;6.900;2022-10-16T15:37:35;1.67;;;0.45;;
20095;SDS011;10207;50.942;6.900;2022-10-16T15:40:01;1.38;;;0.30;;
20095;SDS011;10207;50.942;6.900;2022-10-16T15:42:27;1.45;;;0.47;;
20095;SDS011;10207;50.942;6.900;2022-10-16T15:44:53;0.65;;;0.25;;
20095;SDS011;10207;50.942;6.900;2022-10-16T15:47:18;0.95;;;0.20;;
20095;SDS011;10207;50.942;6.900;2022-10-16T15:49:44;0.55;;;0.20;;
20095;SDS011;10207;50.942;6.900;2022-10-16T15:52:11;1.50;;;0.30;;
20095;SDS011;10207;50.942;6.900;2022-10-16T15:54:37;0.85;;;0.30;;
20095;SDS011;10207;50.942;6.900;2022-10-16T15:57:02;1.33;;;0.38;;
20095;SDS011;10207;50.942;6.900;2022-10-16T15:59:28;0.93;;;0.30;;
20095;SDS011;10207;50.942;6.900;2022-10-16T16:01:54;0.73;;;0.38;;
20095;SDS011;10207;50.942;6.900;2022-10-16T16:04:19;2.22;;;0.60;;
20095;SDS011;10207;50.942;6.900;2022-10-16T16:06:45;0.80;;;0.35;;
20095;SDS011;10207;50.942;6.900;2022-10-16T16:09:11;1.80;;;0.47;;
20095;SDS011;10207;50.942;6.900;2022-10-16T16:11:37;1.33;;;0.40;;
20095;SDS011;10207;50.942;6.900;2022-10-16T16:14:04;1.52;;;0.60;;
20095;SDS011;10207;50.942;6.900;2022-10-16T16:16:30;0.88;;;0.38;;
20095;SDS011;10207;50.942;6.900;2022-10-16T16:18:58;0.73;;;0.30;;
20095;SDS011;10207;50.942;6.900;2022-10-16T16:21:24;0.77;;;0.38;;
20095;SDS011;10207;50.942;6.900;2022-10-16T16:23:50;1.40;;;0.30;;